Time;durP1;ratioP1;P1;durP2;ratioP2;P2;SDS_P1;SDS_P2;PMS_P1;PMS_P2;Temp;Humidity;BMP_temperature;BMP_pressure;BME280_temperature;BME280_humidity;BME280_pressure;Samples;Min_cycle;Max_cycle;Signal;HPM_P1;HPM_P2
2022/04/06 00:01:56;;;;;;;28.13;8.80;;;10.00;99.90;;;;;;5003074;28;20455;-85
2022/04/06 00:04:24;;;;;;;20.50;9.00;;;10.00;99.90;;;;;;5016401;28;20794;-83
2022/04/06 00:06:53;;;;;;;18.23;10.43;;;10.00;99.90;;;;;;5016686;28;20815;-83
2022/04/06 00:09:21;;;;;;;20.87;9.10;;;10.00;99.90;;;;;;5002989;28;20478;-82
2022/04/06 00:11:49;;;;;;;17.63;8.67;;;10.00;99.90;;;;;;5002049;28;20827;-82
2022/04/06 00:14:17;;;;;;;19.60;9.27;;;10.00;99.90;;;;;;5020513;28;20456;-84
2022/04/06 00:16:44;;;;;;;16.60;8.50;;;9.90;99.90;;;;;;5020276;28;20495;-83
2022/04/06 00:19:11;;;;;;;24.00;8.33;;;10.00;99.90;;;;;;5002072;28;20495;-81
2022/04/06 00:21:38;;;;;;;14.07;9.37;;;10.00;99.90;;;;;;5002343;28;20531;-82
2022/04/06 00:24:05;;;;;;;19.40;9.70;;;10.00;99.90;;;;;;5021961;28;20459;-83
2022/04/06 00:26:33;;;;;;;21.27;9.50;;;10.10;99.90;;;;;;5021238;28;20478;-83
2022/04/06 00:29:01;;;;;;;25.27;9.37;;;10.10;99.90;;;;;;5001865;28;20511;-83
2022/04/06 00:31:28;;;;;;;14.60;7.40;;;10.10;99.90;;;;;;5001750;28;20482;-82
2022/04/06 00:33:55;;;;;;;17.03;8.43;;;10.00;99.90;;;;;;5018880;28;20444;-84
2022/04/06 00:36:22;;;;;;;12.57;7.53;;;10.00;99.90;;;;;;5021024;28;20830;-84
2022/04/06 00:38:49;;;;;;;20.90;8.63;;;10.10;99.90;;;;;;5022113;28;20496;-81
2022/04/06 00:41:15;;;;;;;19.43;8.60;;;10.10;99.90;;;;;;5023033;28;20991;-84
2022/04/06 00:43:42;;;;;;;16.30;7.93;;;10.00;99.90;;;;;;5022838;28;20497;-83
2022/04/06 00:46:10;;;;;;;13.40;7.83;;;10.00;99.90;;;;;;5020102;28;20460;-82
2022/04/06 00:48:37;;;;;;;15.73;8.03;;;10.00;99.90;;;;;;5003143;28;20458;-81
2022/04/06 00:51:04;;;;;;;26.20;8.30;;;10.00;99.90;;;;;;5002668;28;20464;-83
2022/04/06 00:53:31;;;;;;;20.20;8.27;;;10.00;99.90;;;;;;5003168;28;20456;-83
2022/04/06 00:55:58;;;;;;;17.63;9.33;;;10.00;99.90;;;;;;5002923;28;20459;-84
2022/04/06 00:58:25;;;;;;;15.77;7.73;;;9.90;99.90;;;;;;5021182;28;20578;-81
2022/04/06 01:00:52;;;;;;;12.10;7.83;;;9.90;99.90;;;;;;5023707;28;20459;-84
2022/04/06 01:03:22;;;;;;;21.83;9.20;;;9.90;99.90;;;;;;5021806;28;20538;-83
2022/04/06 01:05:49;;;;;;;17.10;7.47;;;9.90;99.90;;;;;;5021637;28;20456;-81
2022/04/06 01:08:16;;;;;;;14.70;7.17;;;9.90;99.90;;;;;;5022477;28;20508;-83
2022/04/06 01:10:43;;;;;;;18.97;9.23;;;9.90;99.90;;;;;;5017098;28;20546;-84
2022/04/06 01:13:11;;;;;;;17.10;8.47;;;9.90;99.90;;;;;;5003772;28;20469;-80
2022/04/06 01:15:38;;;;;;;13.90;8.40;;;9.90;99.90;;;;;;5004660;28;20455;-82
2022/04/06 01:18:04;;;;;;;17.67;7.30;;;9.90;99.90;;;;;;5008663;28;20581;-81
2022/04/06 01:20:33;;;;;;;10.83;6.73;;;9.90;99.90;;;;;;5015305;28;21170;-83
2022/04/06 01:23:03;;;;;;;13.73;7.20;;;9.90;99.90;;;;;;5016604;28;20453;-84
2022/04/06 01:25:30;;;;;;;14.50;7.97;;;9.90;99.90;;;;;;5035480;28;20470;-80
2022/04/06 01:27:56;;;;;;;14.23;8.47;;;9.90;99.90;;;;;;5036434;28;20497;-79
2022/04/06 01:30:24;;;;;;;16.93;7.20;;;9.90;99.90;;;;;;5035450;28;20487;-79
2022/04/06 01:32:51;;;;;;;14.17;7.43;;;9.90;99.90;;;;;;5025322;28;20452;-80
2022/04/06 01:35:17;;;;;;;9.23;6.73;;;9.80;99.90;;;;;;5020521;28;20458;-81
2022/04/06 01:37:44;;;;;;;13.00;7.13;;;9.90;99.90;;;;;;5020752;28;20867;-81
2022/04/06 01:40:13;;;;;;;14.60;7.03;;;9.90;99.90;;;;;;5019948;28;20472;-81
2022/04/06 01:42:40;;;;;;;17.87;7.20;;;9.80;99.90;;;;;;5020093;28;20531;-83
2022/04/06 01:45:07;;;;;;;14.43;7.03;;;9.80;99.90;;;;;;5011648;28;20466;-81
2022/04/06 01:47:35;;;;;;;15.93;6.57;;;9.80;99.90;;;;;;5000666;28;20494;-84
2022/04/06 01:52:46;;;;;;;17.47;7.33;;;9.70;99.90;;;;;;5000725;28;20415;-83
2022/04/06 01:55:15;;;;;;;15.20;7.20;;;9.70;99.90;;;;;;5010982;28;20823;-80
2022/04/06 01:57:43;;;;;;;15.27;7.17;;;9.70;99.90;;;;;;5001904;28;20446;-82
2022/04/06 02:00:13;;;;;;;13.87;6.20;;;9.70;99.90;;;;;;5018978;28;20509;-82
2022/04/06 02:02:41;;;;;;;12.50;6.00;;;9.70;99.90;;;;;;5021860;28;20465;-82
2022/04/06 02:05:08;;;;;;;13.90;6.07;;;9.70;99.90;;;;;;5011540;28;20453;-81
2022/04/06 02:07:35;;;;;;;11.87;7.37;;;9.70;99.90;;;;;;5007127;28;20456;-81
2022/04/06 02:10:02;;;;;;;16.23;6.40;;;9.60;99.90;;;;;;5003780;28;20559;-80
2022/04/06 02:12:32;;;;;;;16.20;8.07;;;9.70;99.90;;;;;;4998437;28;20470;-81
2022/04/06 02:14:59;;;;;;;13.03;6.33;;;9.60;99.90;;;;;;5011959;28;20561;-84
2022/04/06 02:17:28;;;;;;;11.23;6.07;;;9.60;99.90;;;;;;5018476;28;20444;-81
2022/04/06 02:19:55;;;;;;;12.30;7.23;;;9.70;99.90;;;;;;5003938;28;20493;-82
2022/04/06 02:22:22;;;;;;;13.90;6.83;;;9.70;99.90;;;;;;4998332;28;20458;-81
2022/04/06 02:24:48;;;;;;;13.10;6.23;;;9.70;99.90;;;;;;4997670;28;20521;-82
2022/04/06 02:27:16;;;;;;;12.23;6.87;;;9.60;99.90;;;;;;4998243;28;20482;-83
2022/04/06 02:29:44;;;;;;;12.23;6.10;;;9.60;99.90;;;;;;4997849;28;20476;-82
2022/04/06 02:32:11;;;;;;;10.23;5.23;;;9.60;99.90;;;;;;5000383;28;20459;-82
2022/04/06 02:34:39;;;;;;;14.13;6.60;;;9.60;99.90;;;;;;4997556;28;20443;-82
2022/04/06 02:37:06;;;;;;;16.80;6.87;;;9.60;99.90;;;;;;4998188;28;20478;-82
2022/04/06 02:39:33;;;;;;;10.07;5.60;;;9.70;99.90;;;;;;4997407;28;20843;-80
2022/04/06 02:42:00;;;;;;;14.80;5.37;;;9.70;99.90;;;;;;5014014;28;20463;-81
2022/04/06 02:44:27;;;;;;;16.27;7.13;;;9.70;99.90;;;;;;5029040;28;20436;-81
2022/04/06 02:46:55;;;;;;;9.40;5.30;;;9.60;99.90;;;;;;5017687;28;20970;-80
2022/04/06 02:49:22;;;;;;;12.40;6.13;;;9.60;99.90;;;;;;5013975;28;20468;-81
2022/04/06 02:51:49;;;;;;;16.00;5.40;;;9.60;99.90;;;;;;5012765;28;20457;-80
2022/04/06 02:54:15;;;;;;;13.40;6.00;;;9.60;99.90;;;;;;5012985;28;20458;-80
2022/04/06 02:56:42;;;;;;;15.63;5.40;;;9.60;99.90;;;;;;5012129;28;20466;-79
2022/04/06 02:59:09;;;;;;;11.17;5.30;;;9.60;99.90;;;;;;5013006;28;20500;-80
2022/04/06 03:01:36;;;;;;;10.67;5.23;;;9.60;99.90;;;;;;5013101;28;20507;-80
2022/04/06 03:04:05;;;;;;;14.30;5.20;;;9.70;99.90;;;;;;5011810;28;20443;-80
2022/04/06 03:06:31;;;;;;;14.50;5.73;;;9.60;99.90;;;;;;5032457;28;20465;-84
2022/04/06 03:08:58;;;;;;;10.23;5.40;;;9.60;99.90;;;;;;5029208;28;20458;-81
2022/04/06 03:11:25;;;;;;;8.23;3.73;;;9.60;99.90;;;;;;5027771;28;20457;-83
2022/04/06 03:13:52;;;;;;;11.83;5.80;;;9.70;99.90;;;;;;5026425;28;20513;-79
2022/04/06 03:16:18;;;;;;;12.27;4.90;;;9.60;99.90;;;;;;5022610;28;20490;-82
2022/04/06 03:18:45;;;;;;;12.70;4.70;;;9.60;99.90;;;;;;5006231;28;20575;-85
2022/04/06 03:21:14;;;;;;;11.93;5.07;;;9.60;99.90;;;;;;5013943;28;20453;-82
2022/04/06 03:23:41;;;;;;;5.03;3.60;;;9.60;99.90;;;;;;5018438;28;20467;-82
2022/04/06 03:26:08;;;;;;;10.10;4.43;;;9.60;99.90;;;;;;5000800;28;20455;-83
2022/04/06 03:28:35;;;;;;;10.53;4.80;;;9.60;99.90;;;;;;4999747;28;20464;-84
2022/04/06 03:31:02;;;;;;;10.17;4.30;;;9.60;99.90;;;;;;4998284;28;20467;-82
2022/04/06 03:33:29;;;;;;;14.53;4.10;;;9.70;99.90;;;;;;4998126;28;20463;-81
2022/04/06 03:35:56;;;;;;;5.80;4.30;;;9.60;99.90;;;;;;5012763;28;20463;-82
2022/04/06 03:38:24;;;;;;;11.67;4.50;;;9.60;99.90;;;;;;5018930;28;20589;-83
2022/04/06 03:40:51;;;;;;;11.93;4.90;;;9.60;99.90;;;;;;5018353;28;20827;-83
2022/04/06 03:43:18;;;;;;;8.20;4.10;;;9.70;99.90;;;;;;5016979;28;20868;-81
2022/04/06 03:45:44;;;;;;;13.50;5.13;;;9.60;99.90;;;;;;5005100;28;20463;-81
2022/04/06 03:48:11;;;;;;;8.73;4.43;;;9.60;99.90;;;;;;4998548;28;20454;-82
2022/04/06 03:50:38;;;;;;;8.97;4.60;;;9.60;99.90;;;;;;5000353;28;20537;-80
2022/04/06 03:53:05;;;;;;;9.70;4.10;;;9.60;99.90;;;;;;4998065;28;20863;-81
2022/04/06 03:55:33;;;;;;;10.57;4.50;;;9.60;99.90;;;;;;5012155;28;20443;-81
2022/04/06 03:58:00;;;;;;;9.40;4.73;;;9.60;99.90;;;;;;5017788;28;20497;-82
2022/04/06 04:00:27;;;;;;;12.13;6.77;;;9.60;99.90;;;;;;5016447;28;20587;-81
2022/04/06 04:02:53;;;;;;;11.60;4.63;;;9.50;99.90;;;;;;5017826;28;20458;-83
2022/04/06 04:05:20;;;;;;;11.20;4.77;;;9.60;99.90;;;;;;5015250;28;20458;-84
2022/04/06 04:07:47;;;;;;;9.03;4.40;;;9.50;99.90;;;;;;5017624;28;20447;-81
2022/04/06 04:10:19;;;;;;;12.30;4.70;;;9.50;99.90;;;;;;5007288;28;20468;-81
2022/04/06 04:12:47;;;;;;;11.30;5.67;;;9.60;99.90;;;;;;4997780;28;20440;-81
2022/04/06 04:15:14;;;;;;;8.73;5.50;;;9.60;99.90;;;;;;5006831;28;20822;-81
2022/04/06 04:17:41;;;;;;;10.07;4.80;;;9.50;99.90;;;;;;5006359;28;20485;-81
2022/04/06 04:20:09;;;;;;;10.43;5.47;;;9.50;99.90;;;;;;5005011;28;20482;-81
2022/04/06 04:22:36;;;;;;;11.10;4.37;;;9.50;99.90;;;;;;5017148;28;20526;-81
2022/04/06 04:25:08;;;;;;;9.93;4.23;;;9.50;99.90;;;;;;5008011;28;20456;-78
2022/04/06 04:27:35;;;;;;;9.30;6.00;;;9.50;99.90;;;;;;4997581;28;20458;-79
2022/04/06 04:30:05;;;;;;;9.13;4.87;;;9.40;99.90;;;;;;4998697;28;20483;-80
2022/04/06 04:32:31;;;;;;;10.67;5.10;;;9.40;99.90;;;;;;4998811;28;20452;-81
2022/04/06 04:35:00;;;;;;;9.17;5.10;;;9.40;99.90;;;;;;5015620;28;20460;-81
2022/04/06 04:37:27;;;;;;;10.10;5.00;;;9.50;99.90;;;;;;5002522;28;20969;-82
2022/04/06 04:39:54;;;;;;;11.90;4.07;;;9.40;99.90;;;;;;5017264;28;20883;-78
2022/04/06 04:42:21;;;;;;;11.50;6.03;;;9.40;99.90;;;;;;5014162;28;20495;-81
2022/04/06 04:44:47;;;;;;;10.30;5.57;;;9.30;99.90;;;;;;5015348;28;20457;-79
2022/04/06 04:47:16;;;;;;;8.60;5.13;;;9.30;99.90;;;;;;5013481;28;20458;-78
2022/04/06 04:49:46;;;;;;;10.33;4.47;;;9.30;99.90;;;;;;5004405;28;20890;-79
2022/04/06 04:52:15;;;;;;;13.23;4.90;;;9.20;99.90;;;;;;5002399;28;20467;-78
2022/04/06 04:54:42;;;;;;;10.73;4.80;;;9.10;99.90;;;;;;5002189;28;20446;-79
2022/04/06 04:57:09;;;;;;;9.37;4.80;;;9.20;99.90;;;;;;5002478;28;20453;-80
2022/04/06 04:59:37;;;;;;;12.70;5.30;;;9.10;99.90;;;;;;5005353;28;20486;-79
2022/04/06 05:02:04;;;;;;;8.30;4.87;;;9.00;99.90;;;;;;5003028;28;20488;-78
2022/04/06 05:04:33;;;;;;;11.73;5.50;;;9.00;99.90;;;;;;5005099;28;20490;-78
2022/04/06 05:07:03;;;;;;;8.00;4.00;;;9.00;99.90;;;;;;5008006;28;20459;-80
2022/04/06 05:09:29;;;;;;;14.00;5.20;;;8.90;99.90;;;;;;5007156;28;20472;-82
2022/04/06 05:11:56;;;;;;;7.30;4.00;;;8.90;99.90;;;;;;5015072;28;20445;-80
2022/04/06 05:14:23;;;;;;;10.20;4.53;;;8.90;99.90;;;;;;5018663;28;20555;-81
2022/04/06 05:16:50;;;;;;;7.53;4.10;;;9.00;99.90;;;;;;5035955;28;20458;-82
2022/04/06 05:19:17;;;;;;;10.20;4.33;;;9.10;99.90;;;;;;5011289;28;20487;-81
2022/04/06 05:21:45;;;;;;;17.13;4.70;;;9.20;99.90;;;;;;5015905;28;20462;-81
2022/04/06 05:24:11;;;;;;;7.30;3.90;;;9.20;99.90;;;;;;5007982;28;20466;-82
2022/04/06 05:26:38;;;;;;;8.00;4.20;;;9.30;99.90;;;;;;5014889;28;21066;-80
2022/04/06 05:29:05;;;;;;;6.37;3.70;;;9.30;99.90;;;;;;5020417;28;20484;-80
2022/04/06 05:31:32;;;;;;;5.50;3.00;;;9.40;99.90;;;;;;5022364;28;20459;-79
2022/04/06 05:33:59;;;;;;;7.77;3.33;;;9.40;99.90;;;;;;5021667;28;20476;-81
2022/04/06 05:36:28;;;;;;;11.80;3.50;;;9.50;99.90;;;;;;5031461;28;20512;-78
2022/04/06 05:38:56;;;;;;;6.30;2.97;;;9.50;99.90;;;;;;5018205;28;20471;-82
2022/04/06 05:41:23;;;;;;;5.07;3.17;;;9.60;99.90;;;;;;5015743;28;20478;-80
2022/04/06 05:43:50;;;;;;;12.10;4.20;;;9.60;99.90;;;;;;5014430;28;20967;-79
2022/04/06 05:46:17;;;;;;;10.13;3.20;;;9.60;99.90;;;;;;5013562;28;20464;-79
2022/04/06 05:48:44;;;;;;;13.13;3.53;;;9.60;99.90;;;;;;5009947;28;20512;-79
2022/04/06 05:51:10;;;;;;;6.80;2.73;;;9.60;99.90;;;;;;5015356;28;21023;-80
2022/04/06 05:53:37;;;;;;;7.07;3.33;;;9.60;99.90;;;;;;5017913;28;20454;-80
2022/04/06 05:56:18;;;;;;;13.50;3.90;;;9.70;99.90;;;;;;5009565;28;20854;-79
2022/04/06 05:58:44;;;;;;;11.13;3.20;;;9.70;99.90;;;;;;5019031;28;20499;-78
2022/04/06 06:01:11;;;;;;;8.83;3.23;;;9.70;99.90;;;;;;5015770;28;20866;-79
2022/04/06 06:03:38;;;;;;;4.83;2.87;;;9.70;99.90;;;;;;5017860;28;20541;-79
2022/04/06 06:06:05;;;;;;;7.70;2.73;;;9.70;99.90;;;;;;5000102;28;20463;-80
2022/04/06 06:08:32;;;;;;;6.57;2.90;;;9.70;99.90;;;;;;5000928;28;20675;-81
2022/04/06 06:10:59;;;;;;;5.63;2.87;;;9.80;99.90;;;;;;5002398;28;20446;-81
2022/04/06 06:13:27;;;;;;;5.10;3.20;;;9.70;99.90;;;;;;5018075;28;20455;-80
2022/04/06 06:15:54;;;;;;;10.40;3.57;;;9.80;99.90;;;;;;5011908;28;20451;-82
2022/04/06 06:18:22;;;;;;;8.43;3.40;;;9.80;99.90;;;;;;5010720;28;20497;-81
2022/04/06 06:20:49;;;;;;;12.70;3.27;;;9.80;99.90;;;;;;5017953;28;20486;-81
2022/04/06 06:23:16;;;;;;;11.47;4.40;;;9.80;99.90;;;;;;5008497;28;20456;-80
2022/04/06 06:25:44;;;;;;;9.80;3.10;;;9.80;99.90;;;;;;4999552;28;20515;-82
2022/04/06 06:28:11;;;;;;;10.80;4.30;;;9.70;99.90;;;;;;4999919;28;20485;-81
2022/04/06 06:30:39;;;;;;;5.10;3.87;;;9.80;99.90;;;;;;5010710;28;20520;-79
2022/04/06 06:33:06;;;;;;;9.50;4.17;;;9.90;99.90;;;;;;4997358;28;20463;-79
2022/04/06 06:35:33;;;;;;;8.70;4.90;;;9.80;99.90;;;;;;4996387;28;20476;-78
2022/04/06 06:38:00;;;;;;;8.17;4.10;;;9.90;99.90;;;;;;4996650;28;20905;-79
2022/04/06 06:40:28;;;;;;;9.27;4.37;;;9.80;99.90;;;;;;4999156;28;20470;-78
2022/04/06 06:42:55;;;;;;;6.53;3.50;;;9.90;99.90;;;;;;5016646;28;20463;-79
2022/04/06 06:45:22;;;;;;;10.50;2.97;;;9.90;99.90;;;;;;5015129;28;20464;-79
2022/04/06 06:47:51;;;;;;;9.00;4.27;;;10.00;99.90;;;;;;5015374;28;20509;-77
2022/04/06 06:50:19;;;;;;;8.30;3.63;;;10.00;99.90;;;;;;5015926;28;20474;-78
2022/04/06 06:52:46;;;;;;;7.60;3.67;;;10.10;99.90;;;;;;5014825;28;20538;-79
2022/04/06 06:55:13;;;;;;;11.10;3.50;;;10.10;99.90;;;;;;5014638;28;20960;-76
2022/04/06 06:57:40;;;;;;;11.20;4.00;;;10.20;99.90;;;;;;5014896;28;20449;-79
2022/04/06 07:00:11;;;;;;;7.87;4.13;;;10.10;99.90;;;;;;5014913;28;20495;-77
2022/04/06 07:02:38;;;;;;;8.37;3.20;;;10.20;99.90;;;;;;5015263;28;20462;-77
2022/04/06 07:05:07;;;;;;;7.67;4.10;;;10.20;99.90;;;;;;5014499;28;20456;-78
2022/04/06 07:07:34;;;;;;;11.27;3.00;;;10.20;99.90;;;;;;5013918;28;20510;-79
2022/04/06 07:10:01;;;;;;;5.23;2.90;;;10.30;99.90;;;;;;5002970;28;20467;-79
2022/04/06 07:12:27;;;;;;;6.60;3.20;;;10.20;99.90;;;;;;5007193;28;20472;-79
2022/04/06 07:14:54;;;;;;;4.93;2.50;;;10.10;99.90;;;;;;5015253;28;20457;-79
2022/04/06 07:17:21;;;;;;;6.60;3.13;;;10.20;99.90;;;;;;5014117;28;20533;-78
2022/04/06 07:19:48;;;;;;;10.30;2.87;;;10.20;99.90;;;;;;5014438;28;20890;-78
2022/04/06 07:22:16;;;;;;;8.83;3.67;;;10.30;99.90;;;;;;5013674;28;20453;-78
2022/04/06 07:24:42;;;;;;;9.93;3.13;;;10.20;99.90;;;;;;5013456;28;20561;-78
2022/04/06 07:27:09;;;;;;;12.60;4.10;;;10.20;99.90;;;;;;5019983;28;20463;-79
2022/04/06 07:29:36;;;;;;;8.47;2.47;;;10.20;99.90;;;;;;5024378;28;20867;-78
2022/04/06 07:32:04;;;;;;;6.50;3.03;;;10.20;99.90;;;;;;5033487;28;20449;-78
2022/04/06 07:34:31;;;;;;;10.80;2.77;;;10.20;99.90;;;;;;4996105;28;20460;-79
2022/04/06 07:36:57;;;;;;;11.00;4.00;;;10.10;99.90;;;;;;4995298;28;20459;-79
2022/04/06 07:39:27;;;;;;;8.30;3.27;;;10.00;99.90;;;;;;5003888;28;21007;-79
2022/04/06 07:41:56;;;;;;;8.10;3.43;;;10.00;99.90;;;;;;5007732;28;20453;-79
2022/04/06 07:44:23;;;;;;;7.87;3.87;;;10.00;99.90;;;;;;5015154;28;20459;-79
2022/04/06 07:46:50;;;;;;;7.60;3.27;;;9.90;99.90;;;;;;5015698;28;21145;-79
2022/04/06 07:49:17;;;;;;;7.23;3.43;;;10.00;99.90;;;;;;4997767;28;20545;-79
2022/04/06 07:51:45;;;;;;;9.93;3.73;;;10.10;99.90;;;;;;4995482;28;20457;-79
2022/04/06 07:54:12;;;;;;;6.17;3.50;;;10.20;99.90;;;;;;5002231;28;20901;-78
2022/04/06 07:56:42;;;;;;;8.20;3.73;;;10.20;99.90;;;;;;5013625;28;20450;-78
2022/04/06 07:59:10;;;;;;;7.97;3.33;;;10.30;99.90;;;;;;5000787;28;20479;-80
2022/04/06 08:01:36;;;;;;;6.50;3.17;;;10.40;99.90;;;;;;4995640;28;20488;-79
2022/04/06 08:04:03;;;;;;;6.40;2.77;;;10.50;99.90;;;;;;5007372;28;20900;-79
2022/04/06 08:06:30;;;;;;;8.23;2.80;;;10.60;99.90;;;;;;5014406;28;20454;-79
2022/04/06 08:08:59;;;;;;;4.80;2.43;;;10.60;99.90;;;;;;5013542;28;20479;-80
2022/04/06 08:11:26;;;;;;;4.93;2.67;;;10.60;99.90;;;;;;5015541;28;20909;-79
2022/04/06 08:13:54;;;;;;;6.67;3.20;;;10.70;99.90;;;;;;5014845;28;20447;-79
2022/04/06 08:16:20;;;;;;;9.03;2.87;;;10.70;99.90;;;;;;5016278;28;20451;-79
2022/04/06 08:18:47;;;;;;;5.07;2.97;;;10.60;99.90;;;;;;5016099;28;20473;-79
2022/04/06 08:21:14;;;;;;;5.87;2.60;;;10.60;99.90;;;;;;5016060;28;20887;-78
2022/04/06 08:23:41;;;;;;;5.87;2.73;;;10.60;99.90;;;;;;5013358;28;20456;-78
2022/04/06 08:26:07;;;;;;;8.47;3.10;;;10.60;99.90;;;;;;5016174;28;20463;-79
2022/04/06 08:28:34;;;;;;;7.60;2.80;;;10.70;99.90;;;;;;5016101;28;20825;-80
2022/04/06 08:31:05;;;;;;;10.93;6.20;;;10.80;99.90;;;;;;5016627;28;20464;-78
2022/04/06 08:33:31;;;;;;;5.33;3.40;;;10.80;99.90;;;;;;5018908;28;21123;-80
2022/04/06 08:35:58;;;;;;;3.83;2.90;;;10.80;99.90;;;;;;5001327;28;20528;-78
2022/04/06 08:38:25;;;;;;;10.43;3.43;;;10.70;99.90;;;;;;5001752;28;20826;-78
2022/04/06 08:40:52;;;;;;;6.40;3.37;;;10.60;99.90;;;;;;5009920;28;20488;-80
2022/04/06 08:43:20;;;;;;;6.00;2.80;;;10.50;99.90;;;;;;5002274;28;20466;-78
2022/04/06 08:45:58;;;;;;;6.70;3.30;;;10.50;99.90;;;;;;5008050;28;20490;-78
2022/04/06 08:48:29;;;;;;;7.93;3.60;;;10.40;99.90;;;;;;5001301;28;20556;-77
2022/04/06 08:50:59;;;;;;;6.20;2.90;;;10.50;99.90;;;;;;4999849;28;20833;-79
2022/04/06 08:53:26;;;;;;;5.47;2.50;;;10.30;99.90;;;;;;5005411;28;20457;-78
2022/04/06 08:55:53;;;;;;;6.00;2.70;;;10.30;99.90;;;;;;5016278;28;20823;-78
2022/04/06 08:58:19;;;;;;;7.17;3.23;;;10.30;99.90;;;;;;4995790;28;20459;-79
2022/04/06 09:00:46;;;;;;;3.93;2.70;;;10.50;99.90;;;;;;5002663;28;20871;-78
2022/04/06 09:03:14;;;;;;;7.53;3.87;;;10.60;99.90;;;;;;4998507;28;20912;-77
2022/04/06 09:05:42;;;;;;;8.03;3.20;;;10.70;99.90;;;;;;4995823;28;20837;-78
2022/04/06 09:08:09;;;;;;;6.77;2.43;;;10.80;99.90;;;;;;4997429;28;20457;-78
2022/04/06 09:10:40;;;;;;;4.30;2.60;;;10.90;99.90;;;;;;4999210;28;20481;-78
2022/04/06 09:13:12;;;;;;;7.03;2.20;;;11.00;99.90;;;;;;4996901;28;20548;-78
2022/04/06 09:15:41;;;;;;;5.00;2.40;;;11.20;99.90;;;;;;5002743;28;20443;-77
2022/04/06 09:18:08;;;;;;;5.27;2.47;;;11.40;99.90;;;;;;4998205;28;20513;-78
2022/04/06 09:20:35;;;;;;;6.50;5.57;;;11.60;99.90;;;;;;5034303;28;20507;-78
2022/04/06 09:23:04;;;;;;;6.80;2.73;;;11.60;99.90;;;;;;5017274;28;20462;-79
2022/04/06 09:25:35;;;;;;;4.87;2.20;;;11.70;99.90;;;;;;5007624;28;20462;-78
2022/04/06 09:28:10;;;;;;;6.77;2.73;;;11.80;99.90;;;;;;4997589;28;20463;-78
2022/04/06 09:30:40;;;;;;;7.70;2.20;;;12.00;99.90;;;;;;5009144;28;20495;-77
2022/04/06 09:33:13;;;;;;;4.10;2.57;;;11.90;99.90;;;;;;5003566;28;20461;-78
2022/04/06 09:35:41;;;;;;;5.77;1.80;;;11.90;99.90;;;;;;5010499;28;20476;-79
2022/04/06 09:38:13;;;;;;;9.90;5.00;;;11.60;99.90;;;;;;5018355;28;20447;-78
2022/04/06 09:40:41;;;;;;;9.80;3.30;;;11.70;99.90;;;;;;5007182;28;20998;-78
2022/04/06 09:43:08;;;;;;;4.30;1.87;;;11.90;99.90;;;;;;5025241;28;20545;-78
2022/04/06 09:48:19;;;;;;;7.87;2.43;;;11.90;99.90;;;;;;5001705;28;20585;-79
2022/04/06 09:50:56;;;;;;;5.47;2.47;;;11.80;99.90;;;;;;5005342;28;20485;-78
2022/04/06 09:53:27;;;;;;;6.23;2.50;;;11.60;99.90;;;;;;5006953;28;20452;-79
2022/04/06 09:55:55;;;;;;;5.87;2.43;;;11.60;99.90;;;;;;5009362;28;20458;-78
2022/04/06 09:58:23;;;;;;;7.03;2.57;;;11.60;99.90;;;;;;5006531;28;20465;-78
2022/04/06 10:00:52;;;;;;;9.00;2.27;;;11.50;99.90;;;;;;5009391;28;20532;-78
2022/04/06 10:03:20;;;;;;;4.73;2.73;;;11.40;99.90;;;;;;5014595;28;20492;-78
2022/04/06 10:05:50;;;;;;;3.80;2.13;;;11.40;99.90;;;;;;5015229;28;20462;-78
2022/04/06 10:08:20;;;;;;;4.70;2.00;;;11.30;99.90;;;;;;5013444;28;20483;-78
2022/04/06 10:10:53;;;;;;;4.53;1.77;;;11.30;99.90;;;;;;5010944;28;20563;-78
2022/04/06 10:13:20;;;;;;;6.90;1.63;;;11.10;99.90;;;;;;5007210;28;20607;-77
2022/04/06 10:15:48;;;;;;;6.30;1.63;;;11.20;99.90;;;;;;5010641;28;20907;-77
2022/04/06 10:18:15;;;;;;;4.37;1.57;;;11.10;99.90;;;;;;5013184;28;20537;-79
2022/04/06 10:20:49;;;;;;;4.00;1.53;;;11.20;99.90;;;;;;5011035;28;20893;-78
2022/04/06 10:23:26;;;;;;;3.40;1.70;;;11.20;99.90;;;;;;5013000;28;21034;-77
2022/04/06 10:26:04;;;;;;;4.27;1.40;;;11.00;99.90;;;;;;5011784;28;20536;-78
2022/04/06 10:28:33;;;;;;;4.43;1.60;;;11.20;99.90;;;;;;5011089;28;20459;-79
2022/04/06 10:31:22;;;;;;;10.07;2.00;;;11.10;99.90;;;;;;5003071;28;20815;-79
2022/04/06 10:33:50;;;;;;;6.20;1.80;;;11.30;99.90;;;;;;5005597;28;20809;-77
2022/04/06 10:36:21;;;;;;;6.23;1.77;;;11.40;99.90;;;;;;5004233;28;20456;-78
2022/04/06 10:39:16;;;;;;;3.37;1.40;;;11.60;99.90;;;;;;5000560;28;20467;-76
2022/04/06 10:42:15;;;;;;;7.63;1.93;;;11.70;99.90;;;;;;5003230;28;20502;-78
2022/04/06 10:44:43;;;;;;;4.77;1.50;;;12.00;99.90;;;;;;5009477;28;20467;-79
2022/04/06 10:47:12;;;;;;;3.37;1.40;;;12.20;99.90;;;;;;5014263;28;20464;-79
2022/04/06 10:49:39;;;;;;;6.80;2.40;;;12.20;99.90;;;;;;5012062;28;20476;-79
2022/04/06 10:52:24;;;;;;;3.77;1.20;;;12.00;99.90;;;;;;4999626;28;20461;-77
2022/04/06 10:54:51;;;;;;;3.40;2.00;;;11.90;99.90;;;;;;4999934;28;20484;-79
2022/04/06 10:57:20;;;;;;;2.70;1.37;;;11.70;99.90;;;;;;5012014;28;20456;-78
2022/04/06 11:00:16;;;;;;;2.87;1.33;;;11.70;99.90;;;;;;5012205;28;20486;-78
2022/04/06 11:02:50;;;;;;;4.40;1.43;;;11.80;99.90;;;;;;5013376;28;20501;-78
2022/04/06 11:05:43;;;;;;;2.97;1.40;;;11.90;99.90;;;;;;5007728;28;20881;-78
2022/04/06 11:11:28;;;;;;;3.97;1.83;;;12.00;99.90;;;;;;5019884;28;20470;-79
2022/04/06 11:13:57;;;;;;;11.97;1.77;;;12.10;99.90;;;;;;5029122;28;20464;-79
2022/04/06 11:16:54;;;;;;;2.50;1.27;;;11.90;99.90;;;;;;5010954;28;20479;-77
2022/04/06 11:19:21;;;;;;;5.40;1.50;;;12.00;99.90;;;;;;4972640;28;20831;-78
2022/04/06 11:21:50;;;;;;;4.23;1.60;;;12.00;99.90;;;;;;5002538;28;20484;-77
2022/04/06 11:24:18;;;;;;;3.50;1.63;;;12.20;99.90;;;;;;5015207;28;20464;-78
2022/04/06 11:26:45;;;;;;;4.17;1.60;;;12.30;99.90;;;;;;5020128;28;20520;-79
2022/04/06 11:29:13;;;;;;;3.00;1.30;;;12.30;99.90;;;;;;5019117;28;20487;-79
2022/04/06 11:31:58;;;;;;;4.60;1.90;;;12.40;99.90;;;;;;5010908;28;20454;-79
2022/04/06 11:34:32;;;;;;;3.27;1.70;;;12.40;99.90;;;;;;4994145;28;20464;-79
2022/04/06 11:36:59;;;;;;;4.03;1.80;;;12.20;99.90;;;;;;5000182;28;20454;-79
2022/04/06 11:39:26;;;;;;;6.40;1.87;;;12.00;99.90;;;;;;5008247;28;20474;-78
2022/04/06 11:41:53;;;;;;;5.47;1.63;;;11.90;99.90;;;;;;5008458;28;20503;-77
2022/04/06 11:44:24;;;;;;;4.37;1.70;;;11.90;99.90;;;;;;4999132;28;20446;-78
2022/04/06 11:46:51;;;;;;;3.27;1.50;;;11.90;99.90;;;;;;4998065;28;20825;-79
2022/04/06 11:49:21;;;;;;;5.80;1.63;;;12.00;99.90;;;;;;4995502;28;20475;-78
2022/04/06 11:51:48;;;;;;;4.53;2.00;;;12.00;99.90;;;;;;5000165;28;20465;-78
2022/04/06 11:54:16;;;;;;;2.60;1.60;;;11.80;99.90;;;;;;4995371;28;20960;-77
2022/04/06 11:56:43;;;;;;;4.83;2.63;;;11.50;99.90;;;;;;5005448;28;20471;-77
2022/04/06 11:59:11;;;;;;;6.07;1.67;;;11.20;99.90;;;;;;4992580;28;20556;-77
2022/04/06 12:01:46;;;;;;;7.40;2.27;;;11.20;99.90;;;;;;4999729;28;20579;-77
2022/04/06 12:04:14;;;;;;;5.10;2.20;;;11.30;99.90;;;;;;5011933;28;20456;-77
2022/04/06 12:06:41;;;;;;;6.83;2.33;;;11.30;99.90;;;;;;5009042;28;20464;-77
2022/04/06 12:09:08;;;;;;;4.87;2.07;;;11.40;99.90;;;;;;4995899;28;21028;-78
2022/04/06 12:11:36;;;;;;;3.70;1.87;;;11.30;99.90;;;;;;4997556;28;20451;-79
2022/04/06 12:14:03;;;;;;;5.33;1.70;;;11.20;99.90;;;;;;5013453;28;20448;-78
2022/04/06 12:16:31;;;;;;;4.10;1.80;;;11.20;99.90;;;;;;5017241;28;20952;-78
2022/04/06 12:18:59;;;;;;;3.30;1.60;;;11.30;99.90;;;;;;5016458;28;20503;-76
2022/04/06 12:21:28;;;;;;;4.30;1.90;;;11.30;99.90;;;;;;5016138;28;20485;-77
2022/04/06 12:24:09;;;;;;;3.83;2.10;;;11.30;99.90;;;;;;5009879;28;20459;-77
2022/04/06 12:26:40;;;;;;;4.80;2.60;;;11.10;99.90;;;;;;5019219;28;20459;-77
2022/04/06 12:29:12;;;;;;;5.37;2.77;;;11.20;99.90;;;;;;5023184;28;20492;-78
2022/04/06 12:31:40;;;;;;;4.50;2.33;;;11.10;99.90;;;;;;5015418;28;20448;-77
2022/04/06 12:34:08;;;;;;;4.77;2.50;;;11.10;99.90;;;;;;4999168;28;20986;-78
2022/04/06 12:36:36;;;;;;;3.33;2.40;;;11.20;99.90;;;;;;4995477;28;20972;-79
2022/04/06 12:39:08;;;;;;;4.03;2.60;;;11.30;99.90;;;;;;5002769;28;20530;-76
2022/04/06 12:41:36;;;;;;;3.90;1.67;;;11.40;99.90;;;;;;5008448;28;20484;-78
2022/04/06 12:44:03;;;;;;;4.37;1.90;;;11.40;99.90;;;;;;4998914;28;20460;-77
2022/04/06 12:46:41;;;;;;;2.60;1.53;;;11.50;99.90;;;;;;4995692;28;20828;-78
2022/04/06 12:49:24;;;;;;;3.80;2.30;;;11.70;99.90;;;;;;5011818;28;20536;-77
2022/04/06 12:52:14;;;;;;;4.23;1.80;;;11.70;99.90;;;;;;5010317;28;20516;-77
2022/04/06 12:54:45;;;;;;;3.83;2.13;;;11.90;99.90;;;;;;4994778;28;20461;-78
2022/04/06 12:57:16;;;;;;;7.23;2.13;;;11.70;99.90;;;;;;5013113;28;20511;-77
2022/04/06 12:59:45;;;;;;;4.33;2.80;;;11.50;99.90;;;;;;5014475;28;20502;-77
2022/04/06 13:02:34;;;;;;;3.40;2.07;;;11.30;99.90;;;;;;5014931;28;20498;-77
2022/04/06 13:05:05;;;;;;;7.13;2.40;;;11.40;99.90;;;;;;5011869;28;20832;-77